sensor_id;sensor_type;location;lat;lon;timestamp;pressure;altitude;pressure_sealevel;temperature;humidity
21574;BME280;10948;48.706;9.258;2022-07-11T00:02:20;98418.59;;;16.38;89.19
21574;BME280;10948;48.706;9.258;2022-07-11T00:04:46;98418.59;;;16.38;90.74
21574;BME280;10948;48.706;9.258;2022-07-11T00:07:12;98422.41;;;16.21;90.58
21574;BME280;10948;48.706;9.258;2022-07-11T00:09:37;98419.97;;;16.31;89.37
21574;BME280;10948;48.706;9.258;2022-07-11T00:12:03;98413.41;;;16.49;87.50
21574;BME280;10948;48.706;9.258;2022-07-11T00:14:28;98425.47;;;16.15;89.54
21574;BME280;10948;48.706;9.258;2022-07-11T00:16:53;98418.22;;;15.70;93.04
21574;BME280;10948;48.706;9.258;2022-07-11T00:19:19;98422.94;;;16.14;90.99
21574;BME280;10948;48.706;9.258;2022-07-11T00:21:45;98416.47;;;16.30;90.09
21574;BME280;10948;48.706;9.258;2022-07-11T00:24:10;98415.66;;;15.94;89.51
21574;BME280;10948;48.706;9.258;2022-07-11T00:26:36;98416.75;;;15.79;94.50
21574;BME280;10948;48.706;9.258;2022-07-11T00:29:01;98408.09;;;15.89;92.49
21574;BME280;10948;48.706;9.258;2022-07-11T00:31:27;98402.25;;;16.22;91.39
21574;BME280;10948;48.706;9.258;2022-07-11T00:33:53;98409.31;;;16.09;91.30
21574;BME280;10948;48.706;9.258;2022-07-11T00:36:18;98406.38;;;16.37;90.69
21574;BME280;10948;48.706;9.258;2022-07-11T00:38:44;98406.72;;;16.32;90.78
21574;BME280;10948;48.706;9.258;2022-07-11T00:41:09;98403.69;;;16.26;91.72
21574;BME280;10948;48.706;9.258;2022-07-11T00:43:36;98406.75;;;16.20;92.22
21574;BME280;10948;48.706;9.258;2022-07-11T00:46:02;98393.69;;;16.31;92.11
21574;BME280;10948;48.706;9.258;2022-07-11T00:48:28;98403.75;;;16.37;90.96
21574;BME280;10948;48.706;9.258;2022-07-11T00:50:54;98403.47;;;16.29;90.34
21574;BME280;10948;48.706;9.258;2022-07-11T00:53:21;98395.19;;;16.22;89.98
21574;BME280;10948;48.706;9.258;2022-07-11T00:55:47;98400.13;;;15.91;93.01
21574;BME280;10948;48.706;9.258;2022-07-11T00:58:13;98395.53;;;15.82;94.68
21574;BME280;10948;48.706;9.258;2022-07-11T01:00:39;98389.81;;;15.88;93.72
21574;BME280;10948;48.706;9.258;2022-07-11T01:03:04;98389.34;;;15.83;94.81
21574;BME280;10948;48.706;9.258;2022-07-11T01:05:30;98390.44;;;16.04;93.53
21574;BME280;10948;48.706;9.258;2022-07-11T01:07:55;98386.53;;;15.73;96.13
21574;BME280;10948;48.706;9.258;2022-07-11T01:10:21;98389.63;;;15.91;93.79
21574;BME280;10948;48.706;9.258;2022-07-11T01:12:47;98387.28;;;15.63;95.12
21574;BME280;10948;48.706;9.258;2022-07-11T01:15:13;98389.44;;;15.81;95.98
21574;BME280;10948;48.706;9.258;2022-07-11T01:17:38;98382.00;;;15.75;94.78
21574;BME280;10948;48.706;9.258;2022-07-11T01:20:04;98390.69;;;15.88;93.85
21574;BME280;10948;48.706;9.258;2022-07-11T01:22:29;98393.81;;;15.93;93.44
21574;BME280;10948;48.706;9.258;2022-07-11T01:24:57;98381.53;;;15.94;92.88
21574;BME280;10948;48.706;9.258;2022-07-11T01:27:22;98384.28;;;15.80;96.53
21574;BME280;10948;48.706;9.258;2022-07-11T01:29:48;98388.44;;;15.59;97.21
21574;BME280;10948;48.706;9.258;2022-07-11T01:32:13;98389.47;;;15.19;99.46
21574;BME280;10948;48.706;9.258;2022-07-11T01:34:38;98387.19;;;15.52;98.82
21574;BME280;10948;48.706;9.258;2022-07-11T01:37:04;98380.66;;;15.57;97.18
21574;BME280;10948;48.706;9.258;2022-07-11T01:39:29;98385.28;;;15.54;99.09
21574;BME280;10948;48.706;9.258;2022-07-11T01:41:56;98383.59;;;15.65;99.52
21574;BME280;10948;48.706;9.258;2022-07-11T01:44:21;98382.59;;;15.43;97.13
21574;BME280;10948;48.706;9.258;2022-07-11T01:46:46;98376.19;;;15.22;100.00
21574;BME280;10948;48.706;9.258;2022-07-11T01:49:12;98374.56;;;15.07;100.00
21574;BME280;10948;48.706;9.258;2022-07-11T01:51:37;98376.25;;;15.58;100.00
21574;BME280;10948;48.706;9.258;2022-07-11T01:54:03;98381.94;;;15.52;100.00
21574;BME280;10948;48.706;9.258;2022-07-11T01:56:28;98383.00;;;15.37;99.68
21574;BME280;10948;48.706;9.258;2022-07-11T01:58:54;98380.78;;;15.31;100.00
21574;BME280;10948;48.706;9.258;2022-07-11T02:01:19;98380.38;;;15.62;99.60
21574;BME280;10948;48.706;9.258;2022-07-11T02:03:45;98379.84;;;15.57;100.00
21574;BME280;10948;48.706;9.258;2022-07-11T02:06:10;98373.75;;;15.56;99.71
21574;BME280;10948;48.706;9.258;2022-07-11T02:08:35;98374.50;;;15.58;100.00
21574;BME280;10948;48.706;9.258;2022-07-11T02:11:02;98376.03;;;15.61;99.75
21574;BME280;10948;48.706;9.258;2022-07-11T02:13:27;98378.66;;;15.61;99.80
21574;BME280;10948;48.706;9.258;2022-07-11T02:15:52;98377.97;;;15.09;100.00
21574;BME280;10948;48.706;9.258;2022-07-11T02:18:18;98376.91;;;15.49;100.00
21574;BME280;10948;48.706;9.258;2022-07-11T02:20:44;98368.50;;;15.06;100.00
21574;BME280;10948;48.706;9.258;2022-07-11T02:23:14;98375.22;;;15.10;100.00
21574;BME280;10948;48.706;9.258;2022-07-11T02:25:39;98381.94;;;15.52;100.00
21574;BME280;10948;48.706;9.258;2022-07-11T02:28:05;98378.75;;;14.72;100.00
21574;BME280;10948;48.706;9.258;2022-07-11T02:30:33;98375.88;;;15.39;100.00
21574;BME280;10948;48.706;9.258;2022-07-11T02:32:58;98370.19;;;15.45;100.00
21574;BME280;10948;48.706;9.258;2022-07-11T02:35:23;98369.88;;;15.12;100.00
21574;BME280;10948;48.706;9.258;2022-07-11T02:37:49;98366.44;;;15.49;100.00
21574;BME280;10948;48.706;9.258;2022-07-11T02:40:14;98374.63;;;15.32;100.00
21574;BME280;10948;48.706;9.258;2022-07-11T02:42:39;98373.97;;;15.16;100.00
21574;BME280;10948;48.706;9.258;2022-07-11T02:45:04;98372.59;;;15.23;100.00
21574;BME280;10948;48.706;9.258;2022-07-11T02:47:33;98367.03;;;15.15;100.00
21574;BME280;10948;48.706;9.258;2022-07-11T02:49:58;98370.78;;;15.61;100.00
21574;BME280;10948;48.706;9.258;2022-07-11T02:52:23;98370.72;;;15.50;100.00
21574;BME280;10948;48.706;9.258;2022-07-11T02:54:48;98368.50;;;15.56;100.00
21574;BME280;10948;48.706;9.258;2022-07-11T02:57:14;98366.59;;;15.21;100.00
21574;BME280;10948;48.706;9.258;2022-07-11T02:59:39;98371.44;;;15.52;100.00
21574;BME280;10948;48.706;9.258;2022-07-11T03:02:04;98362.84;;;15.50;100.00
21574;BME280;10948;48.706;9.258;2022-07-11T03:04:31;98371.88;;;15.58;100.00
21574;BME280;10948;48.706;9.258;2022-07-11T03:06:56;98367.47;;;15.34;100.00
21574;BME280;10948;48.706;9.258;2022-07-11T03:09:22;98364.09;;;15.57;100.00
21574;BME280;10948;48.706;9.258;2022-07-11T03:11:48;98369.94;;;15.73;100.00
21574;BME280;10948;48.706;9.258;2022-07-11T03:14:15;98379.19;;;15.66;100.00
21574;BME280;10948;48.706;9.258;2022-07-11T03:16:40;98371.53;;;15.50;100.00
21574;BME280;10948;48.706;9.258;2022-07-11T03:19:05;98379.44;;;15.38;100.00
21574;BME280;10948;48.706;9.258;2022-07-11T03:21:31;98373.78;;;15.44;100.00
21574;BME280;10948;48.706;9.258;2022-07-11T03:23:56;98376.25;;;15.58;100.00
21574;BME280;10948;48.706;9.258;2022-07-11T03:26:21;98370.78;;;15.61;100.00
21574;BME280;10948;48.706;9.258;2022-07-11T03:28:46;98368.78;;;15.77;100.00
21574;BME280;10948;48.706;9.258;2022-07-11T03:31:11;98373.78;;;15.80;100.00
21574;BME280;10948;48.706;9.258;2022-07-11T03:33:37;98364.25;;;15.79;100.00
21574;BME280;10948;48.706;9.258;2022-07-11T03:36:03;98367.31;;;15.73;100.00
21574;BME280;10948;48.706;9.258;2022-07-11T03:38:28;98364.91;;;15.57;100.00
21574;BME280;10948;48.706;9.258;2022-07-11T03:40:53;98367.13;;;15.01;100.00
21574;BME280;10948;48.706;9.258;2022-07-11T03:43:21;98373.97;;;15.53;100.00
21574;BME280;10948;48.706;9.258;2022-07-11T03:45:46;98373.22;;;15.64;100.00
21574;BME280;10948;48.706;9.258;2022-07-11T03:48:12;98379.94;;;15.18;100.00
21574;BME280;10948;48.706;9.258;2022-07-11T03:50:37;98379.81;;;14.82;100.00
21574;BME280;10948;48.706;9.258;2022-07-11T03:53:03;98379.66;;;15.35;100.00
21574;BME280;10948;48.706;9.258;2022-07-11T03:55:28;98373.75;;;15.56;100.00
21574;BME280;10948;48.706;9.258;2022-07-11T03:57:55;98377.47;;;15.77;100.00
21574;BME280;10948;48.706;9.258;2022-07-11T04:00:20;98371.44;;;15.88;100.00
21574;BME280;10948;48.706;9.258;2022-07-11T04:02:46;98369.59;;;15.77;100.00
21574;BME280;10948;48.706;9.258;2022-07-11T04:05:12;98364.47;;;15.76;100.00
21574;BME280;10948;48.706;9.258;2022-07-11T04:07:37;98362.00;;;15.62;100.00
21574;BME280;10948;48.706;9.258;2022-07-11T04:10:03;98366.16;;;15.77;100.00
21574;BME280;10948;48.706;9.258;2022-07-11T04:12:28;98363.88;;;15.96;100.00
21574;BME280;10948;48.706;9.258;2022-07-11T04:14:53;98361.78;;;14.90;100.00
21574;BME280;10948;48.706;9.258;2022-07-11T04:17:18;98369.81;;;15.38;100.00
21574;BME280;10948;48.706;9.258;2022-07-11T04:19:44;98371.59;;;15.86;100.00
21574;BME280;10948;48.706;9.258;2022-07-11T04:22:09;98361.75;;;16.01;100.00
21574;BME280;10948;48.706;9.258;2022-07-11T04:24:34;98367.69;;;16.15;100.00
21574;BME280;10948;48.706;9.258;2022-07-11T04:27:00;98370.72;;;15.86;100.00
21574;BME280;10948;48.706;9.258;2022-07-11T04:29:25;98376.41;;;15.44;100.00
21574;BME280;10948;48.706;9.258;2022-07-11T04:31:51;98370.63;;;15.39;100.00
21574;BME280;10948;48.706;9.258;2022-07-11T04:34:17;98370.41;;;15.54;100.00
21574;BME280;10948;48.706;9.258;2022-07-11T04:36:44;98372.56;;;16.09;100.00
21574;BME280;10948;48.706;9.258;2022-07-11T04:39:09;98362.38;;;16.28;100.00
21574;BME280;10948;48.706;9.258;2022-07-11T04:41:34;98373.41;;;15.73;100.00
21574;BME280;10948;48.706;9.258;2022-07-11T04:43:59;98367.31;;;16.09;100.00
21574;BME280;10948;48.706;9.258;2022-07-11T04:46:25;98367.50;;;16.06;100.00
21574;BME280;10948;48.706;9.258;2022-07-11T04:48:50;98367.75;;;16.03;100.00
21574;BME280;10948;48.706;9.258;2022-07-11T04:51:15;98370.16;;;15.57;100.00
21574;BME280;10948;48.706;9.258;2022-07-11T04:53:42;98369.84;;;15.24;100.00
21574;BME280;10948;48.706;9.258;2022-07-11T04:56:07;98378.28;;;15.42;100.00
21574;BME280;10948;48.706;9.258;2022-07-11T04:58:33;98377.34;;;15.43;100.00
21574;BME280;10948;48.706;9.258;2022-07-11T05:00:59;98380.06;;;15.41;100.00
21574;BME280;10948;48.706;9.258;2022-07-11T05:03:24;98377.69;;;15.74;100.00
21574;BME280;10948;48.706;9.258;2022-07-11T05:05:50;98373.41;;;15.73;100.00
21574;BME280;10948;48.706;9.258;2022-07-11T05:08:15;98373.34;;;15.50;100.00
21574;BME280;10948;48.706;9.258;2022-07-11T05:10:40;98369.31;;;16.29;100.00
21574;BME280;10948;48.706;9.258;2022-07-11T05:13:05;98371.97;;;15.93;100.00
21574;BME280;10948;48.706;9.258;2022-07-11T05:15:31;98365.25;;;16.48;99.75
21574;BME280;10948;48.706;9.258;2022-07-11T05:17:56;98378.03;;;16.53;97.91
21574;BME280;10948;48.706;9.258;2022-07-11T05:20:22;98379.22;;;16.25;96.44
21574;BME280;10948;48.706;9.258;2022-07-11T05:22:47;98384.50;;;16.49;100.00
21574;BME280;10948;48.706;9.258;2022-07-11T05:25:12;98385.22;;;16.51;99.95
21574;BME280;10948;48.706;9.258;2022-07-11T05:27:37;98383.41;;;16.86;94.64
21574;BME280;10948;48.706;9.258;2022-07-11T05:30:03;98386.13;;;16.73;95.41
21574;BME280;10948;48.706;9.258;2022-07-11T05:32:28;98384.00;;;17.34;92.36
21574;BME280;10948;48.706;9.258;2022-07-11T05:34:54;98379.41;;;17.03;91.83
21574;BME280;10948;48.706;9.258;2022-07-11T05:37:19;98386.72;;;17.22;91.17
21574;BME280;10948;48.706;9.258;2022-07-11T05:39:45;98377.28;;;17.30;91.03
21574;BME280;10948;48.706;9.258;2022-07-11T05:42:10;98380.59;;;17.10;99.25
21574;BME280;10948;48.706;9.258;2022-07-11T05:44:35;98382.50;;;16.98;100.00
21574;BME280;10948;48.706;9.258;2022-07-11T05:47:01;98385.44;;;17.60;97.56
21574;BME280;10948;48.706;9.258;2022-07-11T05:49:27;98391.16;;;17.32;100.00
21574;BME280;10948;48.706;9.258;2022-07-11T05:51:53;98394.41;;;17.25;100.00
21574;BME280;10948;48.706;9.258;2022-07-11T05:54:19;98391.22;;;17.54;98.37
21574;BME280;10948;48.706;9.258;2022-07-11T05:56:45;98387.34;;;17.91;94.29
21574;BME280;10948;48.706;9.258;2022-07-11T05:59:10;98386.00;;;18.08;90.67
21574;BME280;10948;48.706;9.258;2022-07-11T06:01:36;98385.69;;;17.90;90.39
21574;BME280;10948;48.706;9.258;2022-07-11T06:04:01;98381.81;;;18.05;91.71
21574;BME280;10948;48.706;9.258;2022-07-11T06:06:26;98375.47;;;17.97;91.80
21574;BME280;10948;48.706;9.258;2022-07-11T06:08:52;98379.84;;;18.29;90.16
21574;BME280;10948;48.706;9.258;2022-07-11T06:11:18;98385.34;;;18.48;87.17
21574;BME280;10948;48.706;9.258;2022-07-11T06:13:44;98384.06;;;18.63;87.55
21574;BME280;10948;48.706;9.258;2022-07-11T06:16:10;98385.66;;;17.24;95.46
21574;BME280;10948;48.706;9.258;2022-07-11T06:18:36;98382.22;;;18.43;90.25
21574;BME280;10948;48.706;9.258;2022-07-11T06:21:02;98388.34;;;18.75;85.90
21574;BME280;10948;48.706;9.258;2022-07-11T06:23:27;98382.38;;;19.14;84.23
21574;BME280;10948;48.706;9.258;2022-07-11T06:25:53;98381.78;;;19.11;84.32
21574;BME280;10948;48.706;9.258;2022-07-11T06:28:18;98381.69;;;19.72;80.74
21574;BME280;10948;48.706;9.258;2022-07-11T06:30:43;98382.13;;;18.65;83.58
21574;BME280;10948;48.706;9.258;2022-07-11T06:33:09;98391.69;;;19.18;82.91
21574;BME280;10948;48.706;9.258;2022-07-11T06:35:34;98386.50;;;19.07;84.97
21574;BME280;10948;48.706;9.258;2022-07-11T06:37:59;98392.91;;;19.35;82.14
21574;BME280;10948;48.706;9.258;2022-07-11T06:40:25;98381.16;;;19.78;80.51
21574;BME280;10948;48.706;9.258;2022-07-11T06:42:51;98392.75;;;19.87;78.59
21574;BME280;10948;48.706;9.258;2022-07-11T06:45:18;98389.56;;;20.51;76.23
21574;BME280;10948;48.706;9.258;2022-07-11T06:47:43;98383.97;;;20.26;76.08
21574;BME280;10948;48.706;9.258;2022-07-11T06:50:08;98387.31;;;19.08;79.05
21574;BME280;10948;48.706;9.258;2022-07-11T06:52:34;98386.84;;;19.03;82.47
21574;BME280;10948;48.706;9.258;2022-07-11T06:55:00;98388.75;;;20.60;73.36
21574;BME280;10948;48.706;9.258;2022-07-11T06:57:25;98386.38;;;21.14;70.91
21574;BME280;10948;48.706;9.258;2022-07-11T06:59:51;98382.72;;;21.34;69.91
21574;BME280;10948;48.706;9.258;2022-07-11T07:02:16;98387.22;;;20.67;71.20
21574;BME280;10948;48.706;9.258;2022-07-11T07:04:42;98393.38;;;20.96;71.09
21574;BME280;10948;48.706;9.258;2022-07-11T07:07:07;98379.13;;;21.16;68.78
21574;BME280;10948;48.706;9.258;2022-07-11T07:09:32;98382.44;;;21.83;66.78
21574;BME280;10948;48.706;9.258;2022-07-11T07:11:58;98379.19;;;22.34;64.39
21574;BME280;10948;48.706;9.258;2022-07-11T07:14:23;98386.06;;;22.09;64.78
21574;BME280;10948;48.706;9.258;2022-07-11T07:16:49;98384.28;;;21.73;66.04
21574;BME280;10948;48.706;9.258;2022-07-11T07:19:14;98382.50;;;22.45;63.37
21574;BME280;10948;48.706;9.258;2022-07-11T07:21:40;98378.38;;;22.33;63.70
21574;BME280;10948;48.706;9.258;2022-07-11T07:24:05;98379.72;;;22.37;64.91
21574;BME280;10948;48.706;9.258;2022-07-11T07:26:31;98388.16;;;21.79;67.99
21574;BME280;10948;48.706;9.258;2022-07-11T07:28:56;98378.28;;;22.25;63.49
21574;BME280;10948;48.706;9.258;2022-07-11T07:31:22;98378.84;;;23.16;61.73
21574;BME280;10948;48.706;9.258;2022-07-11T07:33:48;98385.06;;;24.09;58.92
21574;BME280;10948;48.706;9.258;2022-07-11T07:36:13;98384.53;;;23.72;60.50
21574;BME280;10948;48.706;9.258;2022-07-11T07:38:39;98382.81;;;23.89;61.30
21574;BME280;10948;48.706;9.258;2022-07-11T07:41:06;98375.13;;;24.19;58.10
21574;BME280;10948;48.706;9.258;2022-07-11T07:43:31;98377.41;;;24.87;55.90
21574;BME280;10948;48.706;9.258;2022-07-11T07:45:57;98373.78;;;27.64;50.30
21574;BME280;10948;48.706;9.258;2022-07-11T07:48:22;98379.47;;;26.65;49.17
21574;BME280;10948;48.706;9.258;2022-07-11T07:50:48;98375.59;;;27.49;47.71
21574;BME280;10948;48.706;9.258;2022-07-11T07:53:14;98371.25;;;29.34;45.29
21574;BME280;10948;48.706;9.258;2022-07-11T07:55:40;98364.91;;;29.14;44.88
21574;BME280;10948;48.706;9.258;2022-07-11T07:58:05;98376.41;;;27.50;48.56
21574;BME280;10948;48.706;9.258;2022-07-11T08:00:30;98365.66;;;29.08;46.63
21574;BME280;10948;48.706;9.258;2022-07-11T08:03:14;98366.88;;;31.98;41.90
21574;BME280;10948;48.706;9.258;2022-07-11T08:05:39;98363.44;;;31.27;41.02
21574;BME280;10948;48.706;9.258;2022-07-11T08:08:05;98367.16;;;38.28;32.41
21574;BME280;10948;48.706;9.258;2022-07-11T08:10:30;98368.56;;;42.56;28.47
21574;BME280;10948;48.706;9.258;2022-07-11T08:12:56;98374.50;;;45.14;25.67
21574;BME280;10948;48.706;9.258;2022-07-11T08:15:21;98362.66;;;40.89;28.35
21574;BME280;10948;48.706;9.258;2022-07-11T08:17:46;98365.09;;;32.80;35.91
21574;BME280;10948;48.706;9.258;2022-07-11T08:20:12;98354.03;;;38.68;30.35
21574;BME280;10948;48.706;9.258;2022-07-11T08:22:37;98366.97;;;38.56;31.33
21574;BME280;10948;48.706;9.258;2022-07-11T08:25:02;98371.28;;;34.28;33.07
21574;BME280;10948;48.706;9.258;2022-07-11T08:27:27;98368.22;;;41.74;27.22
21574;BME280;10948;48.706;9.258;2022-07-11T08:29:53;98374.22;;;38.72;28.92
21574;BME280;10948;48.706;9.258;2022-07-11T08:32:18;98364.16;;;42.50;26.85
21574;BME280;10948;48.706;9.258;2022-07-11T08:34:44;98376.28;;;44.45;24.76
21574;BME280;10948;48.706;9.258;2022-07-11T08:37:09;98372.94;;;43.44;25.01
21574;BME280;10948;48.706;9.258;2022-07-11T08:39:34;98371.88;;;45.28;23.60
21574;BME280;10948;48.706;9.258;2022-07-11T08:42:00;98360.16;;;46.13;22.22
21574;BME280;10948;48.706;9.258;2022-07-11T08:44:25;98366.50;;;44.15;23.62
21574;BME280;10948;48.706;9.258;2022-07-11T08:46:50;98357.00;;;45.61;22.92
21574;BME280;10948;48.706;9.258;2022-07-11T08:49:17;98351.34;;;48.11;21.71
21574;BME280;10948;48.706;9.258;2022-07-11T08:51:43;98347.38;;;47.42;22.46
21574;BME280;10948;48.706;9.258;2022-07-11T08:54:11;98344.06;;;45.29;23.47
21574;BME280;10948;48.706;9.258;2022-07-11T08:56:36;98342.00;;;42.56;25.05
21574;BME280;10948;48.706;9.258;2022-07-11T08:59:02;98340.97;;;44.57;23.96
21574;BME280;10948;48.706;9.258;2022-07-11T09:01:29;98345.88;;;48.92;21.60
21574;BME280;10948;48.706;9.258;2022-07-11T09:03:55;98347.63;;;49.65;21.18
21574;BME280;10948;48.706;9.258;2022-07-11T09:06:20;98337.72;;;46.06;22.99
21574;BME280;10948;48.706;9.258;2022-07-11T09:08:45;98333.88;;;37.83;29.70
21574;BME280;10948;48.706;9.258;2022-07-11T09:11:11;98335.59;;;34.96;32.67
21574;BME280;10948;48.706;9.258;2022-07-11T09:13:36;98336.88;;;32.39;36.05
21574;BME280;10948;48.706;9.258;2022-07-11T09:16:04;98335.78;;;35.47;33.35
21574;BME280;10948;48.706;9.258;2022-07-11T09:18:39;98330.63;;;37.48;31.57
21574;BME280;10948;48.706;9.258;2022-07-11T09:21:09;98332.97;;;36.67;31.50
21574;BME280;10948;48.706;9.258;2022-07-11T09:23:54;98328.09;;;36.81;32.29
21574;BME280;10948;48.706;9.258;2022-07-11T09:26:40;98330.78;;;32.87;36.22
21574;BME280;10948;48.706;9.258;2022-07-11T09:29:07;98323.41;;;36.37;31.99
21574;BME280;10948;48.706;9.258;2022-07-11T09:31:34;98323.91;;;32.16;35.13
21574;BME280;10948;48.706;9.258;2022-07-11T09:34:03;98327.25;;;36.24;32.83
21574;BME280;10948;48.706;9.258;2022-07-11T09:36:36;98322.06;;;36.51;32.57
21574;BME280;10948;48.706;9.258;2022-07-11T09:39:02;98330.00;;;34.50;33.87
21574;BME280;10948;48.706;9.258;2022-07-11T09:41:37;98333.59;;;31.48;36.74
21574;BME280;10948;48.706;9.258;2022-07-11T09:44:08;98334.06;;;29.86;38.70
21574;BME280;10948;48.706;9.258;2022-07-11T09:46:33;98336.13;;;30.31;37.44
21574;BME280;10948;48.706;9.258;2022-07-11T09:49:00;98327.44;;;31.21;38.51
21574;BME280;10948;48.706;9.258;2022-07-11T09:51:26;98336.06;;;30.84;37.28
21574;BME280;10948;48.706;9.258;2022-07-11T09:53:55;98330.16;;;30.42;39.37
21574;BME280;10948;48.706;9.258;2022-07-11T09:56:25;98343.50;;;31.66;37.81
21574;BME280;10948;48.706;9.258;2022-07-11T09:58:58;98335.34;;;32.05;36.40
21574;BME280;10948;48.706;9.258;2022-07-11T10:01:24;98334.22;;;29.78;38.28
21574;BME280;10948;48.706;9.258;2022-07-11T10:03:49;98340.53;;;27.73;40.80
21574;BME280;10948;48.706;9.258;2022-07-11T10:06:14;98333.47;;;27.95;41.81
21574;BME280;10948;48.706;9.258;2022-07-11T10:08:40;98350.91;;;25.50;42.82
21574;BME280;10948;48.706;9.258;2022-07-11T10:11:05;98339.53;;;25.64;45.15
21574;BME280;10948;48.706;9.258;2022-07-11T10:13:30;98332.53;;;26.40;43.60
21574;BME280;10948;48.706;9.258;2022-07-11T10:15:56;98334.19;;;27.60;43.13
21574;BME280;10948;48.706;9.258;2022-07-11T10:18:39;98330.22;;;30.08;40.45
21574;BME280;10948;48.706;9.258;2022-07-11T10:21:09;98334.22;;;30.12;40.22
21574;BME280;10948;48.706;9.258;2022-07-11T10:32:06;98337.44;;;30.61;39.75
21574;BME280;10948;48.706;9.258;2022-07-11T10:34:31;98343.31;;;28.80;40.83
21574;BME280;10948;48.706;9.258;2022-07-11T10:37:03;98344.25;;;26.31;44.89
21574;BME280;10948;48.706;9.258;2022-07-11T10:39:29;98344.97;;;27.37;45.06
21574;BME280;10948;48.706;9.258;2022-07-11T10:41:55;98338.25;;;26.82;44.73
21574;BME280;10948;48.706;9.258;2022-07-11T10:44:21;98340.75;;;27.86;43.30
21574;BME280;10948;48.706;9.258;2022-07-11T10:46:47;98331.78;;;29.89;40.95
21574;BME280;10948;48.706;9.258;2022-07-11T10:59:32;98330.41;;;29.38;39.91
21574;BME280;10948;48.706;9.258;2022-07-11T11:04:41;98328.00;;;30.11;41.69
21574;BME280;10948;48.706;9.258;2022-07-11T11:07:22;98332.59;;;31.10;39.59
21574;BME280;10948;48.706;9.258;2022-07-11T11:09:52;98332.91;;;29.40;40.91
21574;BME280;10948;48.706;9.258;2022-07-11T11:12:18;98333.19;;;30.19;41.56
21574;BME280;10948;48.706;9.258;2022-07-11T11:14:43;98334.44;;;29.83;40.61
21574;BME280;10948;48.706;9.258;2022-07-11T11:19:53;98331.75;;;28.23;41.22
21574;BME280;10948;48.706;9.258;2022-07-11T11:22:19;98328.56;;;28.34;41.48
21574;BME280;10948;48.706;9.258;2022-07-11T11:24:45;98325.38;;;29.29;40.76
21574;BME280;10948;48.706;9.258;2022-07-11T11:27:17;98325.31;;;28.74;40.82
21574;BME280;10948;48.706;9.258;2022-07-11T11:29:44;98324.16;;;28.83;42.16
21574;BME280;10948;48.706;9.258;2022-07-11T11:32:09;98323.75;;;29.28;41.50
21574;BME280;10948;48.706;9.258;2022-07-11T11:34:35;98309.69;;;29.26;39.24
21574;BME280;10948;48.706;9.258;2022-07-11T11:37:00;98313.09;;;29.41;41.74
21574;BME280;10948;48.706;9.258;2022-07-11T11:39:31;98308.91;;;29.32;40.99
21574;BME280;10948;48.706;9.258;2022-07-11T11:42:12;98307.56;;;32.11;39.31
21574;BME280;10948;48.706;9.258;2022-07-11T11:45:13;98306.28;;;30.86;39.05
21574;BME280;10948;48.706;9.258;2022-07-11T11:47:45;98311.91;;;26.56;44.85
21574;BME280;10948;48.706;9.258;2022-07-11T11:50:11;98321.28;;;26.75;44.78
21574;BME280;10948;48.706;9.258;2022-07-11T11:52:36;98323.31;;;28.40;43.50
21574;BME280;10948;48.706;9.258;2022-07-11T11:55:01;98308.94;;;31.77;40.43
21574;BME280;10948;48.706;9.258;2022-07-11T11:57:29;98317.72;;;28.56;41.77
21574;BME280;10948;48.706;9.258;2022-07-11T11:59:54;98306.66;;;29.63;41.39
21574;BME280;10948;48.706;9.258;2022-07-11T12:02:28;98307.50;;;27.66;42.97
21574;BME280;10948;48.706;9.258;2022-07-11T12:04:57;98311.19;;;26.85;44.89
21574;BME280;10948;48.706;9.258;2022-07-11T12:07:25;98300.94;;;29.11;43.04
21574;BME280;10948;48.706;9.258;2022-07-11T12:09:52;98303.66;;;29.79;40.12
21574;BME280;10948;48.706;9.258;2022-07-11T12:12:21;98302.91;;;29.98;41.80
21574;BME280;10948;48.706;9.258;2022-07-11T12:15:06;98300.91;;;30.86;40.75
21574;BME280;10948;48.706;9.258;2022-07-11T12:17:32;98296.69;;;30.44;39.44
21574;BME280;10948;48.706;9.258;2022-07-11T12:19:57;98304.16;;;30.02;41.68
21574;BME280;10948;48.706;9.258;2022-07-11T12:22:22;98298.00;;;30.81;40.56
21574;BME280;10948;48.706;9.258;2022-07-11T12:24:48;98297.63;;;30.11;41.33
21574;BME280;10948;48.706;9.258;2022-07-11T12:27:21;98297.19;;;30.87;40.57
21574;BME280;10948;48.706;9.258;2022-07-11T12:29:47;98311.06;;;26.56;45.67
21574;BME280;10948;48.706;9.258;2022-07-11T12:32:16;98294.56;;;28.49;43.23
21574;BME280;10948;48.706;9.258;2022-07-11T12:34:42;98297.13;;;30.54;41.99
21574;BME280;10948;48.706;9.258;2022-07-11T12:37:09;98299.38;;;31.87;39.61
21574;BME280;10948;48.706;9.258;2022-07-11T12:39:36;98290.53;;;31.48;39.71
21574;BME280;10948;48.706;9.258;2022-07-11T12:42:20;98287.81;;;31.67;39.49
21574;BME280;10948;48.706;9.258;2022-07-11T12:44:53;98288.75;;;31.98;38.63
21574;BME280;10948;48.706;9.258;2022-07-11T12:47:28;98283.50;;;30.69;40.32
21574;BME280;10948;48.706;9.258;2022-07-11T12:49:55;98290.16;;;30.99;40.77
21574;BME280;10948;48.706;9.258;2022-07-11T12:52:21;98288.94;;;31.27;39.77
21574;BME280;10948;48.706;9.258;2022-07-11T12:54:48;98284.22;;;28.10;42.00
21574;BME280;10948;48.706;9.258;2022-07-11T12:57:16;98286.19;;;27.15;43.95
21574;BME280;10948;48.706;9.258;2022-07-11T12:59:43;98279.97;;;29.55;42.22
21574;BME280;10948;48.706;9.258;2022-07-11T13:02:09;98280.34;;;29.92;42.39
21574;BME280;10948;48.706;9.258;2022-07-11T13:10:03;98276.16;;;30.11;42.88
21574;BME280;10948;48.706;9.258;2022-07-11T13:12:29;98271.50;;;30.71;41.90
21574;BME280;10948;48.706;9.258;2022-07-11T13:15:00;98279.31;;;30.47;43.10
21574;BME280;10948;48.706;9.258;2022-07-11T13:17:48;98275.19;;;30.51;41.00
21574;BME280;10948;48.706;9.258;2022-07-11T13:20:14;98268.88;;;28.82;42.57
21574;BME280;10948;48.706;9.258;2022-07-11T13:22:40;98278.38;;;27.71;43.02
21574;BME280;10948;48.706;9.258;2022-07-11T13:25:06;98273.25;;;27.04;45.22